Time;durP1;ratioP1;P1;durP2;ratioP2;P2;SDS_P1;SDS_P2;PMS_P1;PMS_P2;Temp;Humidity;BMP_temperature;BMP_pressure;BME280_temperature;BME280_humidity;BME280_pressure;Samples;Min_cycle;Max_cycle;Signal;HPM_P1;HPM_P2
2023/07/12 00:01:01;;;;;;;6.05;2.28;;;;;;;;;;5226778;28;20032;-73
2023/07/12 00:03:31;;;;;;;5.45;2.78;;;;;;;;;;5227258;28;20386;-73
2023/07/12 00:06:01;;;;;;;9.77;2.35;;;;;;;;;;5227746;28;20017;-73
2023/07/12 00:08:32;;;;;;;4.20;2.08;;;;;;;;;;5228303;28;20021;-72
2023/07/12 00:11:02;;;;;;;6.10;2.05;;;;;;;;;;5227913;28;20023;-73
2023/07/12 00:13:32;;;;;;;4.03;2.13;;;;;;;;;;5227927;28;20086;-72
2023/07/12 00:16:03;;;;;;;2.55;1.80;;;;;;;;;;5227666;28;20028;-73
2023/07/12 00:18:33;;;;;;;8.13;1.98;;;;;;;;;;5228013;28;20356;-72
2023/07/12 00:21:03;;;;;;;3.50;1.83;;;;;;;;;;5228348;28;20438;-73
2023/07/12 00:23:34;;;;;;;4.32;1.85;;;;;;;;;;5227985;28;20305;-72
2023/07/12 00:26:18;;;;;;;4.55;1.73;;;;;;;;;;5227045;28;20115;-73
2023/07/12 00:28:48;;;;;;;4.32;1.75;;;;;;;;;;5228126;28;20044;-72
2023/07/12 00:31:19;;;;;;;5.15;1.73;;;;;;;;;;5227809;28;20025;-73
2023/07/12 00:33:49;;;;;;;6.25;1.67;;;;;;;;;;5227998;28;20059;-72
2023/07/12 00:36:22;;;;;;;5.82;1.80;;;;;;;;;;5227069;28;20025;-73
2023/07/12 00:38:52;;;;;;;5.43;2.05;;;;;;;;;;5227659;28;20021;-72
2023/07/12 00:41:53;;;;;;;6.05;1.80;;;;;;;;;;5227748;28;20028;-73
2023/07/12 00:44:25;;;;;;;10.52;2.38;;;;;;;;;;5227721;28;20024;-73
2023/07/12 00:46:56;;;;;;;6.88;1.98;;;;;;;;;;5226376;28;20021;-73
2023/07/12 00:49:27;;;;;;;6.85;2.28;;;;;;;;;;5227561;28;20028;-73
2023/07/12 00:51:57;;;;;;;4.45;1.77;;;;;;;;;;5227072;28;20029;-73
2023/07/12 00:54:47;;;;;;;5.30;1.95;;;;;;;;;;5227398;28;20108;-73
2023/07/12 00:57:17;;;;;;;5.78;1.63;;;;;;;;;;5215430;28;20017;-74
2023/07/12 00:59:49;;;;;;;5.95;1.88;;;;;;;;;;5227080;28;20029;-73
2023/07/12 01:02:23;;;;;;;8.73;2.42;;;;;;;;;;5227529;28;20025;-73
2023/07/12 01:04:57;;;;;;;7.53;1.92;;;;;;;;;;5226328;28;20474;-73
2023/07/12 01:07:29;;;;;;;10.97;1.97;;;;;;;;;;5226886;28;20228;-72
2023/07/12 01:09:59;;;;;;;7.93;1.60;;;;;;;;;;5226949;28;20024;-72
2023/07/12 01:12:30;;;;;;;5.13;2.10;;;;;;;;;;5226971;28;20594;-73
2023/07/12 01:15:01;;;;;;;10.57;1.90;;;;;;;;;;5227174;28;20019;-72
2023/07/12 01:17:32;;;;;;;7.40;2.25;;;;;;;;;;5226504;28;20062;-72
2023/07/12 01:20:03;;;;;;;4.53;1.60;;;;;;;;;;5226897;28;20534;-73
2023/07/12 01:22:34;;;;;;;6.60;2.00;;;;;;;;;;5226887;28;20047;-73
2023/07/12 01:25:04;;;;;;;6.75;2.03;;;;;;;;;;5226921;28;20483;-72
2023/07/12 01:27:34;;;;;;;8.43;2.20;;;;;;;;;;5226489;28;20025;-73
2023/07/12 01:30:05;;;;;;;3.15;1.77;;;;;;;;;;5226799;28;20151;-72
2023/07/12 01:32:37;;;;;;;8.20;2.33;;;;;;;;;;5226540;28;20017;-72
2023/07/12 01:35:07;;;;;;;6.97;2.10;;;;;;;;;;5226757;28;20437;-73
2023/07/12 01:37:38;;;;;;;6.05;1.80;;;;;;;;;;5225088;28;20163;-72
2023/07/12 01:40:08;;;;;;;8.55;2.13;;;;;;;;;;5226528;28;20021;-72
2023/07/12 01:42:38;;;;;;;8.90;2.55;;;;;;;;;;5226825;28;20025;-72
2023/07/12 01:45:09;;;;;;;5.07;2.35;;;;;;;;;;5226296;28;20032;-72
2023/07/12 01:47:40;;;;;;;6.65;2.70;;;;;;;;;;5226042;28;20634;-72
2023/07/12 01:50:10;;;;;;;9.02;2.65;;;;;;;;;;5226371;28;20024;-72
2023/07/12 01:52:40;;;;;;;6.90;1.95;;;;;;;;;;5225545;28;20029;-72
2023/07/12 01:55:10;;;;;;;7.82;2.20;;;;;;;;;;5221142;28;20017;-72
2023/07/12 01:57:41;;;;;;;6.95;2.25;;;;;;;;;;5217706;28;20421;-72
2023/07/12 02:00:11;;;;;;;5.28;2.20;;;;;;;;;;5226247;28;20041;-72
2023/07/12 02:02:42;;;;;;;11.35;2.40;;;;;;;;;;5226343;28;20033;-73
2023/07/12 02:05:12;;;;;;;3.13;2.03;;;;;;;;;;5226316;28;20033;-72
2023/07/12 02:07:43;;;;;;;5.25;2.17;;;;;;;;;;5224890;28;20028;-72
2023/07/12 02:10:15;;;;;;;7.95;2.25;;;;;;;;;;5225466;28;20033;-72
2023/07/12 02:12:45;;;;;;;11.25;3.08;;;;;;;;;;5226312;28;20029;-72
2023/07/12 02:15:17;;;;;;;7.88;2.42;;;;;;;;;;5226032;28;20015;-72
2023/07/12 02:17:48;;;;;;;5.95;2.35;;;;;;;;;;5225134;28;20009;-72
2023/07/12 02:20:18;;;;;;;9.90;2.38;;;;;;;;;;5225843;28;20025;-72
2023/07/12 02:22:49;;;;;;;6.97;2.90;;;;;;;;;;5225241;28;20082;-72
2023/07/12 02:25:20;;;;;;;10.13;2.40;;;;;;;;;;5225694;28;20029;-72
2023/07/12 02:27:50;;;;;;;5.75;2.10;;;;;;;;;;5225271;28;20331;-72
2023/07/12 02:30:24;;;;;;;7.07;3.25;;;;;;;;;;5225838;28;20079;-72
2023/07/12 02:32:55;;;;;;;6.47;2.45;;;;;;;;;;5225577;28;20031;-73
2023/07/12 02:35:29;;;;;;;6.05;2.38;;;;;;;;;;5225296;28;20360;-72
2023/07/12 02:38:00;;;;;;;10.13;2.35;;;;;;;;;;5225250;28;20021;-73
2023/07/12 02:40:30;;;;;;;9.18;3.28;;;;;;;;;;5225486;28;20024;-72
2023/07/12 02:43:01;;;;;;;4.13;2.47;;;;;;;;;;5224416;28;20021;-72
2023/07/12 02:45:31;;;;;;;6.68;3.00;;;;;;;;;;5224725;28;20032;-72
2023/07/12 02:48:02;;;;;;;8.15;2.63;;;;;;;;;;5224881;28;20021;-72
2023/07/12 02:50:32;;;;;;;9.75;3.00;;;;;;;;;;5225457;28;20378;-73
2023/07/12 02:53:13;;;;;;;11.02;2.20;;;;;;;;;;5225130;28;20017;-73
2023/07/12 02:55:46;;;;;;;9.57;2.42;;;;;;;;;;5214873;28;20025;-73
2023/07/12 02:58:17;;;;;;;11.48;2.97;;;;;;;;;;5221635;28;20387;-73
2023/07/12 03:00:48;;;;;;;10.60;2.70;;;;;;;;;;5225007;28;20017;-73
2023/07/12 03:03:18;;;;;;;8.52;2.47;;;;;;;;;;5225027;28;20546;-72
2023/07/12 03:05:48;;;;;;;3.90;2.10;;;;;;;;;;5224559;28;20497;-72
2023/07/12 03:08:18;;;;;;;6.47;2.95;;;;;;;;;;5224591;28;20066;-73
2023/07/12 03:10:49;;;;;;;8.48;2.60;;;;;;;;;;5224423;28;20017;-72
2023/07/12 03:13:19;;;;;;;10.32;3.25;;;;;;;;;;5225061;28;20075;-73
2023/07/12 03:15:49;;;;;;;9.00;2.85;;;;;;;;;;5224438;28;20013;-73
2023/07/12 03:18:20;;;;;;;5.85;2.50;;;;;;;;;;5224720;28;20497;-73
2023/07/12 03:20:50;;;;;;;6.43;2.70;;;;;;;;;;5223304;28;20389;-73
2023/07/12 03:23:21;;;;;;;10.68;3.05;;;;;;;;;;5224971;28;20374;-73
2023/07/12 03:25:51;;;;;;;9.05;3.40;;;;;;;;;;5224150;28;20029;-73
2023/07/12 03:28:21;;;;;;;6.05;2.65;;;;;;;;;;5224592;28;20408;-73
2023/07/12 03:31:09;;;;;;;8.15;3.13;;;;;;;;;;5223721;28;20021;-73
2023/07/12 03:33:39;;;;;;;9.48;3.22;;;;;;;;;;5224526;28;20378;-73
2023/07/12 03:36:09;;;;;;;5.80;3.05;;;;;;;;;;5224231;28;20021;-73
2023/07/12 03:38:40;;;;;;;11.88;3.25;;;;;;;;;;5224436;28;20518;-73
2023/07/12 03:41:11;;;;;;;12.90;3.30;;;;;;;;;;5224520;28;20028;-73
2023/07/12 03:43:41;;;;;;;10.07;2.90;;;;;;;;;;5224704;28;20115;-73
2023/07/12 03:46:11;;;;;;;10.02;3.58;;;;;;;;;;5223946;28;20529;-73
2023/07/12 03:48:42;;;;;;;9.88;3.80;;;;;;;;;;5224241;28;20025;-73
2023/07/12 03:51:14;;;;;;;10.13;3.85;;;;;;;;;;5224390;28;20478;-73
2023/07/12 03:53:44;;;;;;;12.10;3.45;;;;;;;;;;5224400;28;20025;-73
2023/07/12 03:56:15;;;;;;;9.55;3.75;;;;;;;;;;5210029;28;20529;-73
2023/07/12 03:58:45;;;;;;;11.93;4.20;;;;;;;;;;5224327;28;20459;-73
2023/07/12 04:01:15;;;;;;;14.40;4.25;;;;;;;;;;5224259;28;20115;-73
2023/07/12 04:03:46;;;;;;;9.20;3.70;;;;;;;;;;5224824;28;20025;-73
2023/07/12 04:06:16;;;;;;;14.05;4.50;;;;;;;;;;5223961;28;20043;-73
2023/07/12 04:08:47;;;;;;;13.23;4.35;;;;;;;;;;5223999;28;20013;-73
2023/07/12 04:11:37;;;;;;;13.20;5.03;;;;;;;;;;5223696;28;20017;-73
2023/07/12 04:14:07;;;;;;;13.32;5.28;;;;;;;;;;5224057;28;20056;-73
2023/07/12 04:16:38;;;;;;;8.85;4.22;;;;;;;;;;5223625;28;20041;-73
2023/07/12 04:19:08;;;;;;;14.05;4.47;;;;;;;;;;5223725;28;20025;-73
2023/07/12 04:21:38;;;;;;;9.73;4.63;;;;;;;;;;5224198;28;20120;-73
2023/07/12 04:24:09;;;;;;;14.70;4.68;;;;;;;;;;5224275;28;20025;-73
2023/07/12 04:26:39;;;;;;;12.63;4.80;;;;;;;;;;5223972;28;20462;-73
2023/07/12 04:29:09;;;;;;;13.40;4.95;;;;;;;;;;5223953;28;20028;-73
2023/07/12 04:31:40;;;;;;;12.15;4.00;;;;;;;;;;5223728;28;20108;-73
2023/07/12 04:34:10;;;;;;;13.80;4.18;;;;;;;;;;5224108;28;20028;-73
2023/07/12 04:36:41;;;;;;;12.73;4.95;;;;;;;;;;5223378;28;20021;-73
2023/07/12 04:39:11;;;;;;;14.43;4.20;;;;;;;;;;5224234;28;20107;-72
2023/07/12 04:41:41;;;;;;;11.30;4.60;;;;;;;;;;5223769;28;20049;-73
2023/07/12 04:44:11;;;;;;;8.27;4.15;;;;;;;;;;5227378;28;20031;-73
2023/07/12 04:46:42;;;;;;;16.25;4.80;;;;;;;;;;5227104;28;20028;-72
2023/07/12 04:49:12;;;;;;;15.68;4.93;;;;;;;;;;5227867;28;20117;-72
2023/07/12 04:51:42;;;;;;;9.10;4.65;;;;;;;;;;5227431;28;20025;-72
2023/07/12 04:54:13;;;;;;;12.82;4.90;;;;;;;;;;5227494;28;20017;-72
2023/07/12 04:56:43;;;;;;;18.10;5.80;;;;;;;;;;5213128;28;20024;-72
2023/07/12 04:59:15;;;;;;;16.67;5.38;;;;;;;;;;5227454;28;20082;-72
2023/07/12 05:01:45;;;;;;;17.20;5.20;;;;;;;;;;5227289;28;20029;-73
2023/07/12 05:04:15;;;;;;;12.82;5.00;;;;;;;;;;5227660;28;20364;-72
2023/07/12 05:06:46;;;;;;;19.48;5.82;;;;;;;;;;5226748;28;20471;-73
2023/07/12 05:09:16;;;;;;;17.52;5.43;;;;;;;;;;5226718;28;20025;-72
2023/07/12 05:11:47;;;;;;;11.85;5.20;;;;;;;;;;5227140;28;20369;-72
2023/07/12 05:14:17;;;;;;;11.82;5.32;;;;;;;;;;5227504;28;20382;-72
2023/07/12 05:16:48;;;;;;;16.60;5.95;;;;;;;;;;5226427;28;20028;-72
2023/07/12 05:19:18;;;;;;;18.45;5.05;;;;;;;;;;5227097;28;20043;-73
2023/07/12 05:21:48;;;;;;;12.70;5.43;;;;;;;;;;5227194;28;20087;-73
2023/07/12 05:24:19;;;;;;;20.20;6.28;;;;;;;;;;5226914;28;20477;-72
2023/07/12 05:26:49;;;;;;;13.27;5.10;;;;;;;;;;5226379;28;20020;-73
2023/07/12 05:29:19;;;;;;;14.48;5.63;;;;;;;;;;5226772;28;20023;-72
2023/07/12 05:31:49;;;;;;;11.63;4.90;;;;;;;;;;5226742;28;20442;-72
2023/07/12 05:34:20;;;;;;;12.93;4.75;;;;;;;;;;5226843;28;20028;-72
2023/07/12 05:36:50;;;;;;;10.90;4.72;;;;;;;;;;5226321;28;20025;-72
2023/07/12 05:39:20;;;;;;;16.10;5.53;;;;;;;;;;5226842;28;20021;-72
2023/07/12 05:41:51;;;;;;;13.27;5.20;;;;;;;;;;5226585;28;21622;-72
2023/07/12 05:44:21;;;;;;;11.95;5.15;;;;;;;;;;5226697;28;20332;-73
2023/07/12 05:46:51;;;;;;;13.10;5.30;;;;;;;;;;5225774;28;20493;-72
2023/07/12 05:49:22;;;;;;;9.82;4.20;;;;;;;;;;5226523;28;20455;-72
2023/07/12 05:51:52;;;;;;;12.52;4.53;;;;;;;;;;5226577;28;20029;-72
2023/07/12 05:54:22;;;;;;;17.58;5.28;;;;;;;;;;5225894;28;20028;-72
2023/07/12 05:56:52;;;;;;;11.18;4.38;;;;;;;;;;5225676;28;20024;-72
2023/07/12 05:59:23;;;;;;;13.30;4.70;;;;;;;;;;5225917;28;20466;-72
2023/07/12 06:01:53;;;;;;;11.70;5.05;;;;;;;;;;5226263;28;20122;-72
2023/07/12 06:04:23;;;;;;;15.98;4.63;;;;;;;;;;5226994;28;20024;-73
2023/07/12 06:06:54;;;;;;;15.65;4.43;;;;;;;;;;5227121;28;20029;-73
2023/07/12 06:09:24;;;;;;;10.82;4.07;;;;;;;;;;5226419;28;20086;-72
2023/07/12 06:11:54;;;;;;;9.15;4.13;;;;;;;;;;5226070;28;20051;-73
2023/07/12 06:14:25;;;;;;;12.75;5.10;;;;;;;;;;5226584;28;20541;-73
2023/07/12 06:16:55;;;;;;;17.52;4.43;;;;;;;;;;5227361;28;20021;-72
2023/07/12 06:19:25;;;;;;;14.50;4.07;;;;;;;;;;5227450;28;20462;-72
2023/07/12 06:21:55;;;;;;;12.90;4.13;;;;;;;;;;5226022;28;20108;-73
2023/07/12 06:24:26;;;;;;;11.90;4.22;;;;;;;;;;5225266;28;20425;-72
2023/07/12 06:26:56;;;;;;;9.25;3.38;;;;;;;;;;5225390;28;20020;-72
2023/07/12 06:29:28;;;;;;;10.30;4.20;;;;;;;;;;5225684;28;20100;-72
2023/07/12 06:31:58;;;;;;;12.23;4.32;;;;;;;;;;5225463;28;20021;-73
2023/07/12 06:34:29;;;;;;;15.27;4.38;;;;;;;;;;5225700;28;20059;-72
2023/07/12 06:36:59;;;;;;;20.58;4.07;;;;;;;;;;5224782;28;20096;-72
2023/07/12 06:39:29;;;;;;;15.02;3.80;;;;;;;;;;5225506;28;20048;-73
2023/07/12 06:42:00;;;;;;;12.70;3.72;;;;;;;;;;5225660;28;20021;-72
2023/07/12 06:44:30;;;;;;;11.85;3.60;;;;;;;;;;5225577;28;20075;-72
2023/07/12 06:47:01;;;;;;;10.90;3.50;;;;;;;;;;5225099;28;20303;-73
2023/07/12 06:49:32;;;;;;;21.08;4.07;;;;;;;;;;5225059;28;20024;-72
2023/07/12 06:52:03;;;;;;;14.80;3.65;;;;;;;;;;5225106;28;20021;-72
2023/07/12 06:54:33;;;;;;;12.98;3.97;;;;;;;;;;5224838;28;20024;-72
2023/07/12 06:57:04;;;;;;;14.32;4.32;;;;;;;;;;5211439;28;20368;-72
2023/07/12 06:59:34;;;;;;;14.73;4.53;;;;;;;;;;5223497;28;20044;-72
2023/07/12 07:02:05;;;;;;;15.43;3.78;;;;;;;;;;5224966;28;20029;-72
2023/07/12 07:04:35;;;;;;;9.90;3.75;;;;;;;;;;5225093;28;20147;-72
2023/07/12 07:07:05;;;;;;;12.90;3.45;;;;;;;;;;5224676;28;20021;-72
2023/07/12 07:09:38;;;;;;;9.50;3.38;;;;;;;;;;5224780;28;20104;-72
2023/07/12 07:12:08;;;;;;;14.10;3.25;;;;;;;;;;5224532;28;20474;-72
2023/07/12 07:14:39;;;;;;;13.52;3.80;;;;;;;;;;5224636;28;20029;-72
2023/07/12 07:17:10;;;;;;;13.95;3.90;;;;;;;;;;5224120;28;20029;-72
2023/07/12 07:19:41;;;;;;;8.95;3.28;;;;;;;;;;5224611;28;20017;-71
2023/07/12 07:22:11;;;;;;;7.22;3.38;;;;;;;;;;5224677;28;20027;-72
2023/07/12 07:24:41;;;;;;;13.30;4.28;;;;;;;;;;5224142;28;20063;-72
2023/07/12 07:27:12;;;;;;;12.18;3.10;;;;;;;;;;5224185;28;20314;-73
2023/07/12 07:29:43;;;;;;;9.35;3.70;;;;;;;;;;5224667;28;20021;-72
2023/07/12 07:32:13;;;;;;;9.63;2.92;;;;;;;;;;5224445;28;20445;-73
2023/07/12 07:34:43;;;;;;;6.22;3.15;;;;;;;;;;5224755;28;20040;-72
2023/07/12 07:37:14;;;;;;;13.40;4.10;;;;;;;;;;5223601;28;20077;-72
2023/07/12 07:39:44;;;;;;;9.68;2.97;;;;;;;;;;5224752;28;20013;-72
2023/07/12 07:42:14;;;;;;;10.52;3.05;;;;;;;;;;5224377;28;20033;-72
2023/07/12 07:44:45;;;;;;;9.80;3.40;;;;;;;;;;5224463;28;20407;-72
2023/07/12 07:47:15;;;;;;;12.73;3.30;;;;;;;;;;5223911;28;20387;-72
2023/07/12 07:49:45;;;;;;;8.88;2.78;;;;;;;;;;5223919;28;20025;-72
2023/07/12 07:52:15;;;;;;;10.40;2.78;;;;;;;;;;5224171;28;20505;-72
2023/07/12 07:54:46;;;;;;;13.32;3.63;;;;;;;;;;5222131;28;20021;-72
2023/07/12 07:57:16;;;;;;;15.10;3.72;;;;;;;;;;5212588;28;20025;-72
2023/07/12 07:59:46;;;;;;;11.50;3.08;;;;;;;;;;5210511;28;20467;-72
2023/07/12 08:02:17;;;;;;;12.98;3.70;;;;;;;;;;5223352;28;20032;-72
2023/07/12 08:04:47;;;;;;;12.88;3.28;;;;;;;;;;5214918;28;20025;-72
2023/07/12 08:07:17;;;;;;;11.60;2.70;;;;;;;;;;5222989;28;20021;-72
2023/07/12 08:09:48;;;;;;;14.88;3.45;;;;;;;;;;5224178;28;20028;-72
2023/07/12 08:12:18;;;;;;;9.82;2.65;;;;;;;;;;5223960;28;20483;-72
2023/07/12 08:14:49;;;;;;;9.43;2.95;;;;;;;;;;5223803;28;20032;-72
2023/07/12 08:17:20;;;;;;;11.45;3.38;;;;;;;;;;5216679;28;20066;-71
2023/07/12 08:19:52;;;;;;;13.93;3.17;;;;;;;;;;5227987;28;20454;-72
2023/07/12 08:22:22;;;;;;;10.15;2.75;;;;;;;;;;5228243;28;20466;-72
2023/07/12 08:24:52;;;;;;;7.97;2.45;;;;;;;;;;5227764;28;20036;-72
2023/07/12 08:27:23;;;;;;;13.23;3.97;;;;;;;;;;5227310;28;20021;-72
2023/07/12 08:29:53;;;;;;;11.68;2.65;;;;;;;;;;5227982;28;20021;-73
2023/07/12 08:32:23;;;;;;;9.75;2.55;;;;;;;;;;5227045;28;20021;-73
2023/07/12 08:34:54;;;;;;;7.88;2.38;;;;;;;;;;5226005;28;20021;-72
2023/07/12 08:37:25;;;;;;;10.38;2.95;;;;;;;;;;5227470;28;20028;-73
2023/07/12 08:39:55;;;;;;;8.65;2.97;;;;;;;;;;5227410;28;20501;-72
2023/07/12 08:42:28;;;;;;;9.40;2.55;;;;;;;;;;5227725;28;20048;-73
2023/07/12 08:44:59;;;;;;;7.80;2.58;;;;;;;;;;5227757;28;20556;-73
2023/07/12 08:47:31;;;;;;;7.90;2.58;;;;;;;;;;5227271;28;20025;-72
2023/07/12 08:50:04;;;;;;;10.10;3.00;;;;;;;;;;5227315;28;20028;-73
2023/07/12 08:52:34;;;;;;;16.27;3.35;;;;;;;;;;5227475;28;20114;-73
2023/07/12 08:55:07;;;;;;;11.43;2.95;;;;;;;;;;5227329;28;20012;-73
2023/07/12 08:57:38;;;;;;;6.38;2.70;;;;;;;;;;5227003;28;20027;-72
2023/07/12 09:00:12;;;;;;;8.32;2.60;;;;;;;;;;5222548;28;20501;-73
2023/07/12 09:02:42;;;;;;;7.43;2.28;;;;;;;;;;5213584;28;20509;-72
2023/07/12 09:05:14;;;;;;;12.10;2.75;;;;;;;;;;5227303;28;20017;-72
2023/07/12 09:07:50;;;;;;;9.27;2.42;;;;;;;;;;5226936;28;20380;-72
2023/07/12 09:10:34;;;;;;;13.27;2.63;;;;;;;;;;5226896;28;20021;-72
2023/07/12 09:13:05;;;;;;;8.70;2.35;;;;;;;;;;5226865;28;20111;-72
2023/07/12 09:15:42;;;;;;;10.30;2.28;;;;;;;;;;5226803;28;20040;-73
2023/07/12 09:18:31;;;;;;;7.30;2.55;;;;;;;;;;5226716;28;20045;-72
2023/07/12 09:21:10;;;;;;;9.40;2.30;;;;;;;;;;5227049;28;20012;-72
2023/07/12 09:23:43;;;;;;;7.25;2.25;;;;;;;;;;5226863;28;20178;-73
2023/07/12 09:26:30;;;;;;;9.73;2.45;;;;;;;;;;5226453;28;20505;-73
2023/07/12 09:29:15;;;;;;;9.27;2.53;;;;;;;;;;5225639;28;20486;-73
2023/07/12 09:31:46;;;;;;;5.75;2.25;;;;;;;;;;5226356;28;20024;-73
2023/07/12 09:34:20;;;;;;;4.75;2.00;;;;;;;;;;5227204;28;20009;-73
2023/07/12 09:36:54;;;;;;;10.98;2.65;;;;;;;;;;5226275;28;20390;-72
2023/07/12 09:39:25;;;;;;;6.43;1.87;;;;;;;;;;5226568;28;20024;-73
2023/07/12 09:41:57;;;;;;;11.77;2.40;;;;;;;;;;5226778;28;20028;-73
2023/07/12 09:44:28;;;;;;;7.63;2.10;;;;;;;;;;5226127;28;20032;-73
2023/07/12 09:46:59;;;;;;;8.73;2.25;;;;;;;;;;5226230;28;20025;-72
2023/07/12 09:49:48;;;;;;;8.52;2.38;;;;;;;;;;5226417;28;20085;-73
2023/07/12 09:52:22;;;;;;;8.02;2.08;;;;;;;;;;5226266;28;20478;-73
2023/07/12 09:55:11;;;;;;;8.98;2.00;;;;;;;;;;5225880;28;20070;-73
2023/07/12 09:57:59;;;;;;;8.90;2.28;;;;;;;;;;5226060;28;20021;-73
2023/07/12 10:00:33;;;;;;;11.73;2.17;;;;;;;;;;5226001;28;20021;-73
2023/07/12 10:03:11;;;;;;;6.80;2.25;;;;;;;;;;5225789;28;20064;-73
2023/07/12 10:05:59;;;;;;;9.25;2.53;;;;;;;;;;5225724;28;20389;-73
2023/07/12 10:08:33;;;;;;;5.18;2.33;;;;;;;;;;5226102;28;20029;-73
2023/07/12 10:11:06;;;;;;;8.13;1.97;;;;;;;;;;5225861;28;20045;-73
2023/07/12 10:13:40;;;;;;;10.43;2.00;;;;;;;;;;5224802;28;20493;-72
2023/07/12 10:16:26;;;;;;;6.18;2.03;;;;;;;;;;5224373;28;20643;-73
2023/07/12 10:18:57;;;;;;;6.03;2.50;;;;;;;;;;5225711;28;20092;-72
2023/07/12 10:21:27;;;;;;;8.65;2.28;;;;;;;;;;5226655;28;20429;-73
2023/07/12 10:23:59;;;;;;;9.60;2.35;;;;;;;;;;5225736;28;20039;-72
2023/07/12 10:26:31;;;;;;;6.07;2.03;;;;;;;;;;5225470;28;20103;-72
2023/07/12 10:29:05;;;;;;;12.10;2.70;;;;;;;;;;5225674;28;20025;-73
2023/07/12 10:31:50;;;;;;;11.00;2.50;;;;;;;;;;5226021;28;20025;-72
2023/07/12 10:34:37;;;;;;;6.40;1.77;;;;;;;;;;5214070;28;20025;-73
2023/07/12 10:37:26;;;;;;;6.72;2.00;;;;;;;;;;5224793;28;20104;-73
2023/07/12 10:39:56;;;;;;;11.07;2.30;;;;;;;;;;5225168;28;20029;-73
2023/07/12 10:42:41;;;;;;;7.45;1.90;;;;;;;;;;5225272;28;20082;-73
2023/07/12 10:45:27;;;;;;;9.10;2.72;;;;;;;;;;5225108;28;20013;-72
2023/07/12 10:47:58;;;;;;;4.82;2.08;;;;;;;;;;5225087;28;20375;-72
2023/07/12 10:50:34;;;;;;;7.72;1.95;;;;;;;;;;5225157;28;20021;-73
2023/07/12 10:53:12;;;;;;;7.68;2.30;;;;;;;;;;5224982;28;20479;-73
2023/07/12 10:55:44;;;;;;;10.82;3.10;;;;;;;;;;5224745;28;20528;-73
2023/07/12 10:58:23;;;;;;;9.13;2.30;;;;;;;;;;5223757;28;20021;-73
2023/07/12 11:00:55;;;;;;;8.02;2.33;;;;;;;;;;5211559;28;20026;-72
2023/07/12 11:03:47;;;;;;;7.70;2.17;;;;;;;;;;5224708;28;20107;-73
2023/07/12 11:06:36;;;;;;;5.30;1.60;;;;;;;;;;5224634;28;20382;-73
2023/07/12 11:09:09;;;;;;;3.78;1.48;;;;;;;;;;5224738;28;20036;-73
2023/07/12 11:11:57;;;;;;;5.70;1.30;;;;;;;;;;5220475;28;20108;-72
2023/07/12 11:14:37;;;;;;;6.72;1.42;;;;;;;;;;5224790;28;20029;-72
2023/07/12 11:17:09;;;;;;;7.70;1.25;;;;;;;;;;5224490;28;20086;-73
2023/07/12 11:19:39;;;;;;;6.93;1.60;;;;;;;;;;5224524;28;20068;-72
2023/07/12 11:22:25;;;;;;;5.87;1.50;;;;;;;;;;5224225;28;20060;-73
2023/07/12 11:25:13;;;;;;;2.92;1.00;;;;;;;;;;5224614;28;20350;-73
2023/07/12 11:27:44;;;;;;;7.18;1.17;;;;;;;;;;5210921;28;20032;-73
2023/07/12 11:30:15;;;;;;;2.40;1.20;;;;;;;;;;5224266;28;20025;-73
2023/07/12 11:32:46;;;;;;;2.38;1.08;;;;;;;;;;5224148;28;20295;-73
2023/07/12 11:35:19;;;;;;;6.70;1.63;;;;;;;;;;5224413;28;20221;-73
2023/07/12 11:37:50;;;;;;;4.95;1.70;;;;;;;;;;5224643;28;20020;-73
2023/07/12 11:40:23;;;;;;;3.50;1.27;;;;;;;;;;5224276;28;20021;-73
2023/07/12 11:42:53;;;;;;;4.38;1.25;;;;;;;;;;5224092;28;20036;-72
2023/07/12 11:45:23;;;;;;;3.78;1.17;;;;;;;;;;5224164;28;20049;-73
2023/07/12 11:47:54;;;;;;;5.15;1.50;;;;;;;;;;5224244;28;20025;-73
2023/07/12 11:50:26;;;;;;;5.65;1.30;;;;;;;;;;5224174;28;20033;-73
2023/07/12 11:52:56;;;;;;;12.25;1.35;;;;;;;;;;5226350;28;20418;-73
2023/07/12 11:55:28;;;;;;;6.43;1.30;;;;;;;;;;5226988;28;20036;-73
2023/07/12 11:57:58;;;;;;;7.20;1.45;;;;;;;;;;5228198;28;20491;-73
2023/07/12 12:00:29;;;;;;;5.87;1.47;;;;;;;;;;5217964;28;20021;-73
2023/07/12 12:03:04;;;;;;;8.27;1.92;;;;;;;;;;5225567;28;20323;-73
2023/07/12 12:05:35;;;;;;;7.15;1.65;;;;;;;;;;5228222;28;20021;-73
2023/07/12 12:08:06;;;;;;;9.82;1.70;;;;;;;;;;5227516;28;20055;-73
2023/07/12 12:10:38;;;;;;;9.75;1.50;;;;;;;;;;5227870;28;20036;-73
2023/07/12 12:13:21;;;;;;;5.70;1.60;;;;;;;;;;5228230;28;20021;-72
2023/07/12 12:15:58;;;;;;;8.73;1.45;;;;;;;;;;5228047;28;20013;-73
2023/07/12 12:18:30;;;;;;;5.35;1.35;;;;;;;;;;5227693;28;20105;-73
2023/07/12 12:21:04;;;;;;;6.63;1.63;;;;;;;;;;5227919;28;20020;-73
2023/07/12 12:23:37;;;;;;;3.97;1.27;;;;;;;;;;5227991;28;20104;-73
2023/07/12 12:26:22;;;;;;;8.07;1.65;;;;;;;;;;5227564;28;20474;-73
2023/07/12 12:28:56;;;;;;;4.13;1.30;;;;;;;;;;5228184;28;20429;-73
2023/07/12 12:31:28;;;;;;;6.03;1.20;;;;;;;;;;5227774;28;20029;-73
2023/07/12 12:34:15;;;;;;;2.85;1.13;;;;;;;;;;5227814;28;20024;-73
2023/07/12 12:36:57;;;;;;;4.20;1.30;;;;;;;;;;5227255;28;20025;-73
2023/07/12 12:39:28;;;;;;;5.25;1.20;;;;;;;;;;5227393;28;20244;-73
2023/07/12 12:42:03;;;;;;;5.35;1.33;;;;;;;;;;5227737;28;20025;-72
2023/07/12 12:44:35;;;;;;;4.03;1.17;;;;;;;;;;5227734;28;20027;-73
2023/07/12 12:47:17;;;;;;;7.65;1.20;;;;;;;;;;5227176;28;20056;-73
2023/07/12 12:49:47;;;;;;;3.03;1.00;;;;;;;;;;5226973;28;20067;-73
2023/07/12 12:52:21;;;;;;;4.10;1.30;;;;;;;;;;5227526;28;20060;-72
2023/07/12 12:54:52;;;;;;;4.05;1.10;;;;;;;;;;5227243;28;20382;-73
2023/07/12 12:57:23;;;;;;;3.13;1.02;;;;;;;;;;5227047;28;20470;-73
2023/07/12 12:59:53;;;;;;;6.53;1.23;;;;;;;;;;5221839;28;20016;-73
2023/07/12 13:02:24;;;;;;;4.07;1.00;;;;;;;;;;5219278;28;20414;-73
2023/07/12 13:04:55;;;;;;;6.03;1.00;;;;;;;;;;5227260;28;20017;-73
2023/07/12 13:07:27;;;;;;;6.60;1.25;;;;;;;;;;5226801;28;20039;-73
2023/07/12 13:09:58;;;;;;;7.18;1.30;;;;;;;;;;5226826;28;20024;-73
2023/07/12 13:12:28;;;;;;;5.75;1.00;;;;;;;;;;5226838;28;20017;-73
2023/07/12 13:14:59;;;;;;;4.93;1.02;;;;;;;;;;5227006;28;20029;-73
2023/07/12 13:17:30;;;;;;;2.67;0.93;;;;;;;;;;5226532;28;20043;-73
2023/07/12 13:20:00;;;;;;;3.33;1.20;;;;;;;;;;5227375;28;20028;-73
2023/07/12 13:22:30;;;;;;;4.22;1.10;;;;;;;;;;5226938;28;20029;-73
2023/07/12 13:25:00;;;;;;;3.22;0.85;;;;;;;;;;5226595;28;20032;-73
2023/07/12 13:27:33;;;;;;;5.45;1.40;;;;;;;;;;5226444;28;20051;-73
2023/07/12 13:30:05;;;;;;;3.80;0.90;;;;;;;;;;5226654;28;20025;-72
2023/07/12 13:32:35;;;;;;;3.58;0.90;;;;;;;;;;5225348;28;20025;-72
2023/07/12 13:35:06;;;;;;;6.15;1.38;;;;;;;;;;5226608;28;20512;-73
2023/07/12 13:37:37;;;;;;;4.53;1.00;;;;;;;;;;5226299;28;20013;-72
2023/07/12 13:40:11;;;;;;;5.43;1.25;;;;;;;;;;5226428;28;20031;-72
2023/07/12 13:42:43;;;;;;;3.27;1.40;;;;;;;;;;5226645;28;20016;-73
2023/07/12 13:45:14;;;;;;;5.35;1.10;;;;;;;;;;5225152;28;20024;-73
2023/07/12 13:47:44;;;;;;;5.28;1.10;;;;;;;;;;5226243;28;20474;-72
2023/07/12 13:50:16;;;;;;;7.30;1.15;;;;;;;;;;5225977;28;20059;-73
2023/07/12 13:52:46;;;;;;;4.13;1.20;;;;;;;;;;5226383;28;20016;-72
2023/07/12 13:55:18;;;;;;;3.92;1.08;;;;;;;;;;5226243;28;20054;-72
2023/07/12 13:57:48;;;;;;;3.15;0.85;;;;;;;;;;5226027;28;20013;-73
2023/07/12 14:00:19;;;;;;;2.65;1.20;;;;;;;;;;5216956;28;20045;-72
2023/07/12 14:02:50;;;;;;;5.50;1.15;;;;;;;;;;5221774;28;20033;-73
2023/07/12 14:05:21;;;;;;;6.07;1.00;;;;;;;;;;5226276;28;20036;-73
2023/07/12 14:07:51;;;;;;;5.15;1.10;;;;;;;;;;5233220;28;20028;-73
2023/07/12 14:10:21;;;;;;;8.52;1.20;;;;;;;;;;5226138;28;20025;-73
2023/07/12 14:12:52;;;;;;;2.92;1.02;;;;;;;;;;5225861;28;20023;-73
2023/07/12 14:15:24;;;;;;;5.00;1.35;;;;;;;;;;5224891;28;20048;-73
2023/07/12 14:17:55;;;;;;;3.25;0.93;;;;;;;;;;5225325;28;20021;-73
2023/07/12 14:20:26;;;;;;;3.92;0.95;;;;;;;;;;5225766;28;20484;-73
2023/07/12 14:22:57;;;;;;;3.80;1.20;;;;;;;;;;5226183;28;20013;-73
2023/07/12 14:25:27;;;;;;;4.18;1.13;;;;;;;;;;5225020;28;20017;-73
2023/07/12 14:28:00;;;;;;;5.78;0.95;;;;;;;;;;5225578;28;20108;-73
2023/07/12 14:30:31;;;;;;;4.45;0.90;;;;;;;;;;5225535;28;22298;-73
2023/07/12 14:33:04;;;;;;;4.78;0.93;;;;;;;;;;5225659;28;20060;-73
2023/07/12 14:35:35;;;;;;;4.30;1.58;;;;;;;;;;5225345;28;20079;-72
2023/07/12 14:38:09;;;;;;;5.55;1.30;;;;;;;;;;5224906;28;20017;-73
2023/07/12 14:40:39;;;;;;;3.58;0.95;;;;;;;;;;5225407;28;20069;-73
2023/07/12 14:43:11;;;;;;;5.68;1.10;;;;;;;;;;5225196;28;20478;-72
2023/07/12 14:45:42;;;;;;;2.70;1.00;;;;;;;;;;5224920;28;20091;-72
2023/07/12 14:48:13;;;;;;;3.00;0.80;;;;;;;;;;5225573;28;20063;-73
2023/07/12 14:50:44;;;;;;;3.40;1.15;;;;;;;;;;5224691;28;20435;-73
2023/07/12 14:53:15;;;;;;;8.35;1.45;;;;;;;;;;5225190;28;20462;-72
2023/07/12 14:55:46;;;;;;;5.10;1.10;;;;;;;;;;5225300;28;20439;-72
2023/07/12 14:58:17;;;;;;;5.43;1.20;;;;;;;;;;5224880;28;20067;-73
2023/07/12 15:00:47;;;;;;;5.55;1.00;;;;;;;;;;5211799;28;20494;-73
2023/07/12 15:03:19;;;;;;;4.53;1.40;;;;;;;;;;5224966;28;20551;-73
2023/07/12 15:05:50;;;;;;;4.93;1.40;;;;;;;;;;5224522;28;20155;-73
2023/07/12 15:08:20;;;;;;;8.57;1.15;;;;;;;;;;5225046;28;20092;-72